Paradise, Montana
Current Conditions -  °F | °C
As of 6:22 PM on Friday 24 Oct 2014 (Local Time) from KMLP Reporting Station
Overcast Overcast  
Wind Chill: 31°   Ceiling: 9500
Heat Index: 36°   Visibility: 10mi
Dew Point: 35°   Wind: 6mph
Humidity: 97%   Direction: 130°SE
Pressure: 30.07"   Gusts: NA
Location:  47.39°N, 114.8°W
Report Text: KMLP 250022Z AUTO 13005KT 10SM FEW015 SCT022 OVC095 02/02 A3007 RMK AO2 T00220017
Loading
Personal Weather Stations






























Interactive Weather Map
Tropical Storm Tracking
New forecast layout! Learn more

10-Day Weather Forecast

Advertisements
Track Severe Weather on mobile